createdAt,value
2023-03-07T00:00:09.540Z,18.52
2023-03-07T00:01:43.003Z,16.02
2023-03-07T00:03:18.366Z,15.43
2023-03-07T00:04:51.552Z,20.35
2023-03-07T00:06:24.615Z,20.67
2023-03-07T00:07:59.321Z,22.15
2023-03-07T00:09:32.469Z,21.45
2023-03-07T00:11:07.585Z,24.80
2023-03-07T00:12:41.034Z,18.45
2023-03-07T00:14:14.158Z,23.00
2023-03-07T00:15:46.319Z,23.10
2023-03-07T00:17:19.505Z,23.80
2023-03-07T00:18:53.175Z,19.95
2023-03-07T00:20:25.413Z,20.63
2023-03-07T00:21:58.549Z,17.33
2023-03-07T00:23:33.296Z,21.35
2023-03-07T00:25:06.183Z,22.58
2023-03-07T00:26:39.870Z,20.48
2023-03-07T00:28:12.250Z,18.00
2023-03-07T00:29:45.469Z,20.40
2023-03-07T00:31:19.642Z,18.80
2023-03-07T00:32:53.011Z,23.40
2023-03-07T00:34:26.265Z,23.98
2023-03-07T00:36:00.126Z,21.83
2023-03-07T00:37:33.839Z,18.38
2023-03-07T00:39:08.468Z,19.20
2023-03-07T00:40:40.776Z,22.95
2023-03-07T00:42:13.872Z,18.75
2023-03-07T00:43:47.592Z,26.17
2023-03-07T00:45:20.687Z,21.58
2023-03-07T00:46:54.048Z,25.65
2023-03-07T00:48:27.228Z,18.73
2023-03-07T00:50:01.326Z,26.23
2023-03-07T00:51:34.444Z,22.55
2023-03-07T00:53:06.603Z,22.40
2023-03-07T00:54:41.165Z,24.58
2023-03-07T00:56:16.882Z,26.70
2023-03-07T00:57:50.861Z,24.02
2023-03-07T00:59:24.075Z,19.63
2023-03-07T01:00:58.048Z,15.77
2023-03-07T01:02:32.481Z,20.98
2023-03-07T01:04:05.885Z,17.83
2023-03-07T01:05:39.454Z,23.23
2023-03-07T01:07:12.909Z,24.70
2023-03-07T01:08:46.805Z,18.58
2023-03-07T01:10:22.788Z,18.50
2023-03-07T01:11:55.996Z,29.23
2023-03-07T01:13:28.674Z,17.90
2023-03-07T01:15:05.614Z,20.02
2023-03-07T01:16:40.169Z,17.77
2023-03-07T01:18:13.620Z,16.08
2023-03-07T01:19:46.800Z,22.30
2023-03-07T01:21:22.250Z,19.30
2023-03-07T01:22:56.224Z,20.42
2023-03-07T01:24:28.746Z,25.55
2023-03-07T01:26:03.933Z,21.80
2023-03-07T01:27:37.967Z,17.52
2023-03-07T01:29:13.188Z,22.05
2023-03-07T01:30:45.569Z,20.88
2023-03-07T01:32:18.800Z,20.42
2023-03-07T01:33:54.184Z,19.15
2023-03-07T01:35:28.315Z,20.15
2023-03-07T01:37:03.545Z,17.92
2023-03-07T01:38:35.771Z,23.58
2023-03-07T01:40:14.143Z,15.40
2023-03-07T01:41:49.189Z,17.98
2023-03-07T01:43:27.390Z,13.52
2023-03-07T01:45:29.833Z,17.70
2023-03-07T01:47:03.745Z,21.50
2023-03-07T01:48:42.668Z,16.67
2023-03-07T01:50:18.914Z,18.15
2023-03-07T01:51:58.326Z,19.35
2023-03-07T01:53:30.731Z,20.50
2023-03-07T01:55:08.337Z,23.02
2023-03-07T01:56:42.656Z,17.83
2023-03-07T01:58:17.539Z,17.90
2023-03-07T01:59:55.699Z,18.65
2023-03-07T02:01:28.747Z,19.30
2023-03-07T02:03:09.500Z,16.60
2023-03-07T02:04:50.980Z,17.67
2023-03-07T02:06:25.134Z,16.55
2023-03-07T02:08:02.230Z,26.17
2023-03-07T02:09:39.232Z,21.02
2023-03-07T02:11:12.153Z,22.80
2023-03-07T02:12:45.927Z,29.27
2023-03-07T02:14:20.392Z,21.98
2023-03-07T02:15:54.133Z,24.58
2023-03-07T02:17:28.420Z,18.38
2023-03-07T02:19:01.498Z,27.02
2023-03-07T02:20:43.988Z,24.30
2023-03-07T02:22:20.095Z,20.42
2023-03-07T02:23:59.483Z,23.65
2023-03-07T02:25:37.401Z,23.58
2023-03-07T02:27:12.291Z,18.35
2023-03-07T02:28:48.603Z,17.98
2023-03-07T02:30:22.814Z,20.73
2023-03-07T02:31:58.652Z,19.00
2023-03-07T02:33:32.052Z,21.83
2023-03-07T02:35:15.501Z,20.55
2023-03-07T02:36:51.349Z,18.88
2023-03-07T02:38:27.989Z,18.50
2023-03-07T02:40:06.916Z,17.38
2023-03-07T02:41:40.814Z,19.00
2023-03-07T02:43:24.690Z,21.02
2023-03-07T02:44:59.776Z,18.58
2023-03-07T02:46:34.842Z,21.67
2023-03-07T02:48:08.222Z,18.50
2023-03-07T02:49:41.733Z,17.08
2023-03-07T02:51:14.273Z,17.05
2023-03-07T02:52:51.158Z,20.13
2023-03-07T02:54:25.086Z,21.50
2023-03-07T02:55:58.561Z,22.73
2023-03-07T02:57:32.225Z,23.77
2023-03-07T02:59:07.471Z,24.20
2023-03-07T03:00:40.781Z,29.55
2023-03-07T03:02:14.291Z,27.85
2023-03-07T03:03:47.554Z,25.70
2023-03-07T03:05:21.367Z,26.40
2023-03-07T03:06:54.577Z,22.88
2023-03-07T03:08:27.870Z,22.08
2023-03-07T03:10:01.290Z,25.58
2023-03-07T03:11:36.561Z,27.77
2023-03-07T03:13:09.932Z,22.13
2023-03-07T03:14:44.145Z,20.55
2023-03-07T03:16:18.464Z,22.98
2023-03-07T03:17:54.567Z,22.30
2023-03-07T03:19:29.668Z,21.83
2023-03-07T03:21:09.202Z,14.90
2023-03-07T03:22:43.154Z,20.30
2023-03-07T03:24:17.521Z,17.08
2023-03-07T03:25:59.184Z,17.40
2023-03-07T03:27:33.698Z,19.17
2023-03-07T03:29:07.496Z,15.95
2023-03-07T03:30:41.520Z,13.73
2023-03-07T03:32:14.780Z,17.55
2023-03-07T03:33:52.459Z,16.17
2023-03-07T03:35:24.641Z,14.05
2023-03-07T03:37:00.394Z,13.88
2023-03-07T03:38:34.562Z,16.63
2023-03-07T03:40:14.875Z,14.30
2023-03-07T03:41:49.682Z,15.13
2023-03-07T03:43:23.566Z,16.42
2023-03-07T03:44:56.741Z,16.58
2023-03-07T03:46:31.574Z,14.93
2023-03-07T03:48:05.322Z,17.98
2023-03-07T03:49:38.588Z,18.65
2023-03-07T03:51:14.549Z,18.58
2023-03-07T03:52:46.846Z,20.42
2023-03-07T03:54:20.064Z,17.83
2023-03-07T03:55:53.316Z,25.50
2023-03-07T03:57:26.491Z,38.20
2023-03-07T03:59:00.011Z,22.33
2023-03-07T04:00:33.205Z,20.80
2023-03-07T04:02:08.124Z,24.65
2023-03-07T04:03:42.562Z,25.67
2023-03-07T04:05:15.939Z,30.15
2023-03-07T04:06:49.562Z,25.48
2023-03-07T04:08:22.517Z,28.88
2023-03-07T04:09:55.956Z,37.65
2023-03-07T04:11:29.989Z,45.97
2023-03-07T04:13:03.194Z,28.45
2023-03-07T04:14:35.527Z,27.02
2023-03-07T04:16:09.120Z,23.10
2023-03-07T04:17:43.890Z,27.40
2023-03-07T04:19:16.186Z,25.23
2023-03-07T04:20:51.102Z,18.02
2023-03-07T04:22:24.336Z,23.15
2023-03-07T04:23:58.630Z,23.73
2023-03-07T04:25:35.864Z,19.80
2023-03-07T04:27:09.274Z,16.27
2023-03-07T04:28:49.235Z,18.85
2023-03-07T04:30:37.957Z,20.42
2023-03-07T04:32:11.565Z,17.27
2023-03-07T04:33:45.843Z,15.48
2023-03-07T04:35:19.166Z,20.30
2023-03-07T04:36:52.464Z,110.30
2023-03-07T04:38:24.970Z,29.42
2023-03-07T04:39:58.047Z,21.00
2023-03-07T04:41:31.281Z,20.40
2023-03-07T04:43:09.253Z,21.23
2023-03-07T04:44:42.610Z,35.33
2023-03-07T04:46:16.245Z,39.17
2023-03-07T04:47:49.458Z,50.72
2023-03-07T04:49:24.334Z,38.17
2023-03-07T04:50:56.725Z,37.30
2023-03-07T04:52:30.216Z,34.60
2023-03-07T04:54:02.450Z,31.70
2023-03-07T04:55:35.969Z,33.70
2023-03-07T04:57:09.520Z,29.10
2023-03-07T04:58:43.249Z,21.00
2023-03-07T05:00:16.442Z,25.30
2023-03-07T05:01:49.909Z,18.98
2023-03-07T05:03:24.348Z,23.90
2023-03-07T05:04:58.904Z,21.05
2023-03-07T05:06:32.330Z,25.10
2023-03-07T05:08:05.376Z,23.10
2023-03-07T05:09:39.229Z,18.83
2023-03-07T05:11:12.354Z,25.55
2023-03-07T05:12:45.543Z,31.73
2023-03-07T05:14:19.366Z,26.73
2023-03-07T05:15:53.603Z,25.88
2023-03-07T05:17:28.001Z,21.20
2023-03-07T05:19:02.932Z,21.33
2023-03-07T05:20:39.431Z,22.65
2023-03-07T05:22:12.834Z,23.52
2023-03-07T05:23:49.073Z,22.38
2023-03-07T05:25:23.334Z,19.35
2023-03-07T05:26:57.042Z,22.67
2023-03-07T05:28:30.625Z,28.67
2023-03-07T05:30:04.006Z,45.33
2023-03-07T05:31:37.213Z,26.80
2023-03-07T05:33:13.003Z,29.00
2023-03-07T05:34:47.120Z,17.40
2023-03-07T05:36:22.792Z,20.73
2023-03-07T05:37:55.166Z,28.52
2023-03-07T05:39:28.842Z,30.67
2023-03-07T05:41:01.769Z,34.33
2023-03-07T05:42:35.096Z,33.50
2023-03-07T05:44:08.715Z,32.03
2023-03-07T05:45:41.994Z,31.70
2023-03-07T05:47:15.430Z,34.15
2023-03-07T05:48:48.781Z,29.00
2023-03-07T05:50:21.136Z,34.90
2023-03-07T05:51:56.312Z,32.08
2023-03-07T05:53:29.700Z,36.17
2023-03-07T05:55:01.881Z,37.45
2023-03-07T05:56:35.096Z,39.03
2023-03-07T05:58:08.568Z,35.58
2023-03-07T05:59:41.992Z,32.97
2023-03-07T06:01:15.281Z,31.00
2023-03-07T06:02:48.583Z,41.25
2023-03-07T06:04:22.643Z,39.13
2023-03-07T06:05:56.163Z,39.80
2023-03-07T06:07:30.761Z,35.00
2023-03-07T06:09:05.746Z,38.08
2023-03-07T06:10:40.424Z,33.95
2023-03-07T06:12:16.188Z,31.88
2023-03-07T06:13:49.330Z,36.88
2023-03-07T06:15:24.882Z,31.80
2023-03-07T06:17:04.471Z,42.95
2023-03-07T06:18:38.720Z,32.55
2023-03-07T06:20:13.029Z,37.75
2023-03-07T06:21:46.338Z,47.40
2023-03-07T06:23:21.028Z,44.30
2023-03-07T06:24:55.144Z,34.10
2023-03-07T06:26:28.423Z,37.88
2023-03-07T06:28:02.199Z,33.00
2023-03-07T06:29:38.061Z,37.20
2023-03-07T06:31:12.459Z,34.88
2023-03-07T06:32:45.793Z,38.05
2023-03-07T06:34:19.326Z,32.70
2023-03-07T06:35:53.954Z,36.33
2023-03-07T06:37:27.436Z,30.77
2023-03-07T06:39:04.874Z,35.67
2023-03-07T06:40:38.603Z,39.63
2023-03-07T06:42:11.017Z,29.42
2023-03-07T06:43:44.334Z,38.35
2023-03-07T06:45:17.585Z,31.90
2023-03-07T06:46:50.729Z,32.90
2023-03-07T06:48:29.569Z,34.28
2023-03-07T06:50:03.769Z,45.13
2023-03-07T06:51:38.785Z,47.45
2023-03-07T06:53:13.583Z,48.53
2023-03-07T06:54:48.540Z,53.47
2023-03-07T06:56:22.116Z,50.10
2023-03-07T06:57:55.346Z,44.55
2023-03-07T06:59:28.636Z,46.00
2023-03-07T07:01:02.133Z,43.42
2023-03-07T07:02:37.145Z,85.97
2023-03-07T07:04:12.067Z,41.95
2023-03-07T07:05:47.015Z,40.55
2023-03-07T07:07:21.023Z,34.50
2023-03-07T07:08:56.540Z,30.08
2023-03-07T07:10:33.444Z,33.75
2023-03-07T07:12:07.494Z,37.00
2023-03-07T07:13:41.742Z,30.40
2023-03-07T07:15:16.976Z,30.90
2023-03-07T07:16:50.350Z,28.35
2023-03-07T07:18:23.554Z,37.90
2023-03-07T07:19:57.134Z,46.03
2023-03-07T07:21:30.607Z,41.53
2023-03-07T07:23:03.705Z,46.92
2023-03-07T07:24:37.061Z,45.22
2023-03-07T07:26:12.490Z,43.85
2023-03-07T07:27:45.944Z,37.53
2023-03-07T07:29:19.165Z,39.35
2023-03-07T07:30:53.710Z,45.90
2023-03-07T07:32:27.371Z,38.85
2023-03-07T07:34:00.940Z,32.45
2023-03-07T07:35:36.321Z,41.60
2023-03-07T07:37:09.660Z,44.00
2023-03-07T07:38:42.866Z,32.72
2023-03-07T07:40:16.447Z,42.95
2023-03-07T07:41:53.471Z,43.10
2023-03-07T07:43:30.117Z,39.20
2023-03-07T07:45:35.991Z,39.78
2023-03-07T07:47:11.229Z,39.88
2023-03-07T07:48:44.373Z,39.38
2023-03-07T07:50:18.257Z,40.40
2023-03-07T07:51:51.951Z,46.08
2023-03-07T07:53:25.378Z,54.47
2023-03-07T07:54:58.541Z,44.97
2023-03-07T07:56:32.774Z,34.95
2023-03-07T07:58:07.322Z,33.72
2023-03-07T07:59:40.562Z,40.35
2023-03-07T08:01:16.056Z,34.05
2023-03-07T08:02:50.700Z,30.55
2023-03-07T08:04:24.249Z,33.38
2023-03-07T08:05:57.426Z,28.13
2023-03-07T08:07:30.593Z,23.17
2023-03-07T08:09:05.537Z,33.78
2023-03-07T08:10:43.141Z,29.48
2023-03-07T08:12:16.321Z,32.83
2023-03-07T08:13:51.023Z,36.08
2023-03-07T08:15:24.261Z,31.77
2023-03-07T08:16:57.898Z,29.88
2023-03-07T08:18:31.071Z,30.77
2023-03-07T08:20:08.609Z,34.10
2023-03-07T08:21:41.794Z,30.95
2023-03-07T08:23:15.347Z,30.40
2023-03-07T08:24:50.263Z,32.33
2023-03-07T08:26:24.429Z,34.63
2023-03-07T08:27:58.272Z,32.95
2023-03-07T08:29:33.313Z,40.53
2023-03-07T08:31:11.053Z,31.42
2023-03-07T08:32:44.298Z,31.23
2023-03-07T08:34:17.459Z,33.80
2023-03-07T08:35:51.148Z,40.42
2023-03-07T08:37:24.303Z,28.38
2023-03-07T08:38:57.501Z,26.10
2023-03-07T08:40:31.981Z,25.55
2023-03-07T08:42:05.817Z,22.08
2023-03-07T08:43:40.271Z,22.58
2023-03-07T08:45:15.324Z,20.17
2023-03-07T08:46:48.467Z,30.98
2023-03-07T08:48:21.914Z,38.70
2023-03-07T08:49:55.064Z,37.35
2023-03-07T08:51:28.780Z,29.73
2023-03-07T08:53:01.905Z,29.67
2023-03-07T08:54:35.404Z,33.17
2023-03-07T08:56:09.219Z,31.17
2023-03-07T08:57:42.761Z,36.78
2023-03-07T08:59:16.162Z,32.00
2023-03-07T09:00:50.828Z,28.33
2023-03-07T09:02:23.962Z,23.58
2023-03-07T09:03:57.526Z,26.95
2023-03-07T09:05:31.150Z,30.48
2023-03-07T09:07:05.093Z,28.45
2023-03-07T09:08:38.223Z,31.70
2023-03-07T09:10:12.709Z,30.05
2023-03-07T09:11:45.892Z,26.38
2023-03-07T09:13:19.123Z,21.90
2023-03-07T09:14:54.968Z,21.88
2023-03-07T09:16:29.628Z,19.35
2023-03-07T09:18:02.829Z,22.83
2023-03-07T09:19:36.580Z,21.20
2023-03-07T09:21:09.790Z,21.52
2023-03-07T09:22:43.179Z,26.08
2023-03-07T09:24:16.287Z,28.55
2023-03-07T09:25:49.566Z,22.80
2023-03-07T09:27:23.028Z,24.00
2023-03-07T09:28:56.419Z,22.17
2023-03-07T09:30:29.610Z,34.67
2023-03-07T09:32:05.666Z,26.00
2023-03-07T09:33:38.884Z,20.10
2023-03-07T09:35:12.386Z,19.45
2023-03-07T09:36:45.805Z,20.83
2023-03-07T09:38:19.110Z,20.25
2023-03-07T09:39:52.203Z,13.75
2023-03-07T09:41:43.877Z,11.05
2023-03-07T09:43:21.007Z,14.77
2023-03-07T09:45:22.314Z,9.18
2023-03-07T09:47:55.127Z,9.98
2023-03-07T09:49:33.548Z,12.35
2023-03-07T09:51:16.780Z,13.45
2023-03-07T09:52:52.486Z,17.88
2023-03-07T09:54:31.368Z,6.18
2023-03-07T09:56:09.504Z,9.27
2023-03-07T09:57:50.554Z,5.57
2023-03-07T09:59:31.905Z,6.28
2023-03-07T10:01:08.258Z,6.40
2023-03-07T10:02:49.477Z,14.30
2023-03-07T10:04:29.221Z,4.07
2023-03-07T10:06:10.381Z,6.45
2023-03-07T10:07:43.493Z,11.07
2023-03-07T10:09:21.989Z,7.25
2023-03-07T10:11:05.204Z,7.85
2023-03-07T10:12:57.389Z,4.18
2023-03-07T10:14:47.702Z,5.47
2023-03-07T10:16:28.527Z,6.57
2023-03-07T10:18:16.367Z,12.77
2023-03-07T10:19:52.348Z,8.00
2023-03-07T10:21:34.215Z,6.20
2023-03-07T10:23:25.180Z,13.18
2023-03-07T10:25:10.330Z,9.27
2023-03-07T10:26:50.710Z,8.52
2023-03-07T10:28:26.851Z,6.43
2023-03-07T10:30:02.624Z,10.93
2023-03-07T10:31:40.824Z,4.32
2023-03-07T10:33:19.576Z,2.58
2023-03-07T10:34:58.129Z,2.20
2023-03-07T10:36:40.705Z,2.22
2023-03-07T10:38:22.363Z,3.78
2023-03-07T10:39:57.390Z,7.72
2023-03-07T10:41:30.937Z,6.60
2023-03-07T10:43:06.056Z,4.25
2023-03-07T10:44:39.952Z,4.07
2023-03-07T10:46:26.875Z,5.20
2023-03-07T10:48:06.790Z,4.20
2023-03-07T10:49:46.569Z,2.33
2023-03-07T10:51:34.633Z,3.42
2023-03-07T10:53:23.075Z,2.63
2023-03-07T10:54:58.037Z,3.00
2023-03-07T10:56:31.269Z,8.40
2023-03-07T10:58:24.875Z,8.30
2023-03-07T11:00:15.220Z,4.05
2023-03-07T11:01:56.370Z,4.60
2023-03-07T11:03:46.007Z,3.53
2023-03-07T11:05:32.474Z,2.25
2023-03-07T11:07:05.741Z,3.80
2023-03-07T11:08:38.844Z,6.57
2023-03-07T11:10:28.672Z,4.15
2023-03-07T11:12:13.792Z,3.15
2023-03-07T11:14:07.026Z,2.95
2023-03-07T11:15:40.317Z,5.50
2023-03-07T11:17:21.360Z,2.88
2023-03-07T11:18:54.595Z,2.90
2023-03-07T11:20:30.954Z,3.33
2023-03-07T11:22:06.211Z,3.15
2023-03-07T11:23:39.479Z,6.40
2023-03-07T11:25:26.945Z,4.53
2023-03-07T11:27:01.081Z,6.20
2023-03-07T11:28:35.909Z,3.15
2023-03-07T11:30:29.267Z,7.43
2023-03-07T11:32:14.217Z,12.77
2023-03-07T11:34:00.002Z,4.45
2023-03-07T11:35:51.440Z,9.90
2023-03-07T11:37:35.517Z,5.85
2023-03-07T11:39:18.753Z,2.70
2023-03-07T11:40:58.048Z,2.92
2023-03-07T11:42:35.899Z,2.28
2023-03-07T11:44:30.557Z,3.47
2023-03-07T11:46:10.405Z,2.67
2023-03-07T11:47:54.149Z,3.55
2023-03-07T11:49:44.441Z,3.72
2023-03-07T11:51:38.796Z,4.70
2023-03-07T11:53:43.176Z,3.33
2023-03-07T11:55:26.706Z,4.05
2023-03-07T11:57:12.303Z,4.57
2023-03-07T11:59:24.194Z,2.30
2023-03-07T12:01:10.255Z,2.55
2023-03-07T12:03:06.991Z,3.40
2023-03-07T12:04:54.882Z,5.07
2023-03-07T12:06:37.460Z,4.15
2023-03-07T12:08:30.687Z,5.22
2023-03-07T12:10:14.974Z,3.70
2023-03-07T12:12:00.688Z,5.38
2023-03-07T12:13:44.811Z,4.78
2023-03-07T12:15:32.425Z,3.20
2023-03-07T12:17:18.874Z,6.18
2023-03-07T12:19:08.656Z,4.05
2023-03-07T12:20:52.461Z,2.38
2023-03-07T12:22:30.201Z,5.72
2023-03-07T12:24:08.183Z,2.97
2023-03-07T12:25:44.789Z,4.00
2023-03-07T12:27:26.792Z,7.57
2023-03-07T12:29:05.157Z,3.70
2023-03-07T12:30:50.759Z,3.92
2023-03-07T12:32:27.901Z,2.55
2023-03-07T12:34:06.859Z,4.68
2023-03-07T12:35:45.560Z,2.83
2023-03-07T12:37:24.801Z,3.40
2023-03-07T12:39:04.267Z,3.05
2023-03-07T12:40:42.922Z,4.03
2023-03-07T12:42:31.429Z,5.28
2023-03-07T12:44:08.709Z,5.07
2023-03-07T12:45:46.850Z,3.63
2023-03-07T12:47:28.509Z,6.93
2023-03-07T12:49:11.152Z,2.13
2023-03-07T12:50:53.923Z,3.42
2023-03-07T12:52:38.055Z,5.20
2023-03-07T12:54:20.058Z,5.38
2023-03-07T12:55:58.468Z,5.35
2023-03-07T12:57:36.021Z,3.10
2023-03-07T12:59:13.504Z,3.08
2023-03-07T13:00:51.392Z,6.40
2023-03-07T13:02:29.909Z,6.38
2023-03-07T13:04:09.152Z,5.80
2023-03-07T13:05:45.196Z,8.23
2023-03-07T13:07:24.028Z,3.08
2023-03-07T13:09:01.621Z,4.40
2023-03-07T13:10:36.317Z,8.35
2023-03-07T13:12:32.170Z,9.13
2023-03-07T13:14:06.676Z,9.40
2023-03-07T13:16:12.810Z,8.65
2023-03-07T13:18:02.189Z,6.57
2023-03-07T13:19:59.986Z,3.85
2023-03-07T13:21:34.261Z,6.35
2023-03-07T13:23:29.626Z,7.32
2023-03-07T13:25:38.715Z,2.58
2023-03-07T13:27:17.920Z,4.85
2023-03-07T13:28:52.478Z,6.95
2023-03-07T13:30:26.850Z,6.10
2023-03-07T13:32:00.141Z,4.72
2023-03-07T13:33:32.403Z,5.93
2023-03-07T13:35:10.191Z,9.25
2023-03-07T13:36:42.429Z,6.57
2023-03-07T13:38:44.230Z,4.57
2023-03-07T13:40:50.904Z,3.72
2023-03-07T13:42:49.512Z,5.30
2023-03-07T13:44:30.532Z,11.00
2023-03-07T13:46:04.922Z,6.45
2023-03-07T13:47:43.025Z,4.20
2023-03-07T13:49:46.280Z,6.28
2023-03-07T13:51:19.576Z,8.32
2023-03-07T13:52:52.893Z,8.07
2023-03-07T13:54:26.008Z,4.80
2023-03-07T13:56:03.468Z,13.48
2023-03-07T13:57:42.187Z,4.18
2023-03-07T13:59:24.608Z,6.15
2023-03-07T14:01:01.885Z,5.07
2023-03-07T14:02:35.176Z,4.93
2023-03-07T14:04:16.063Z,4.47
2023-03-07T14:05:49.652Z,4.63
2023-03-07T14:07:25.869Z,3.13
2023-03-07T14:09:02.702Z,7.10
2023-03-07T14:10:47.999Z,3.83
2023-03-07T14:12:31.308Z,3.78
2023-03-07T14:14:39.021Z,4.28
2023-03-07T14:16:25.857Z,2.95
2023-03-07T14:18:16.335Z,3.60
2023-03-07T14:20:00.144Z,4.05
2023-03-07T14:21:46.018Z,5.43
2023-03-07T14:23:34.994Z,3.38
2023-03-07T14:25:17.078Z,3.55
2023-03-07T14:26:52.106Z,5.63
2023-03-07T14:28:28.016Z,8.73
2023-03-07T14:30:02.603Z,4.70
2023-03-07T14:31:40.107Z,3.95
2023-03-07T14:33:19.171Z,5.93
2023-03-07T14:34:53.280Z,8.80
2023-03-07T14:36:30.355Z,6.40
2023-03-07T14:38:06.804Z,5.22
2023-03-07T14:39:50.002Z,9.88
2023-03-07T14:41:39.372Z,5.88
2023-03-07T14:43:30.063Z,8.25
2023-03-07T14:45:19.060Z,9.43
2023-03-07T14:47:02.818Z,15.63
2023-03-07T14:49:03.197Z,18.88
2023-03-07T14:50:40.151Z,28.00
2023-03-07T14:52:29.627Z,18.88
2023-03-07T14:54:09.089Z,14.73
2023-03-07T14:55:45.902Z,13.05
2023-03-07T14:57:24.931Z,10.05
2023-03-07T14:59:01.521Z,15.77
2023-03-07T15:00:36.335Z,12.07
2023-03-07T15:02:19.247Z,11.13
2023-03-07T15:03:54.058Z,5.05
2023-03-07T15:05:29.108Z,6.93
2023-03-07T15:07:04.603Z,6.95
2023-03-07T15:08:38.845Z,8.25
2023-03-07T15:10:15.694Z,14.35
2023-03-07T15:11:53.741Z,6.72
2023-03-07T15:13:33.113Z,7.43
2023-03-07T15:15:07.626Z,16.05
2023-03-07T15:16:47.904Z,21.63
2023-03-07T15:18:25.695Z,20.67
2023-03-07T15:20:02.936Z,36.70
2023-03-07T15:21:40.087Z,23.15
2023-03-07T15:23:21.774Z,15.90
2023-03-07T15:24:55.118Z,18.05
2023-03-07T15:26:28.855Z,15.00
2023-03-07T15:28:04.529Z,9.52
2023-03-07T15:29:39.307Z,12.50
2023-03-07T15:31:14.228Z,37.15
2023-03-07T15:32:49.013Z,29.27
2023-03-07T15:34:26.641Z,22.63
2023-03-07T15:36:18.375Z,25.95
2023-03-07T15:37:54.483Z,20.38
2023-03-07T15:39:34.829Z,19.20
2023-03-07T15:41:25.818Z,22.20
2023-03-07T15:43:02.243Z,21.75
2023-03-07T15:44:38.267Z,27.08
2023-03-07T15:46:19.092Z,35.30
2023-03-07T15:47:53.911Z,41.33
2023-03-07T15:49:35.133Z,31.27
2023-03-07T15:51:15.949Z,43.80
2023-03-07T15:52:53.977Z,52.83
2023-03-07T15:54:38.672Z,52.83
2023-03-07T15:56:25.901Z,30.27
2023-03-07T15:58:01.947Z,38.45
2023-03-07T15:59:38.453Z,40.38
2023-03-07T16:01:21.128Z,47.88
2023-03-07T16:03:26.075Z,41.10
2023-03-07T16:05:00.058Z,73.47
2023-03-07T16:06:40.446Z,57.10
2023-03-07T16:08:15.391Z,71.10
2023-03-07T16:09:48.587Z,74.63
2023-03-07T16:11:21.707Z,75.55
2023-03-07T16:12:54.915Z,81.43
2023-03-07T16:14:31.320Z,76.90
2023-03-07T16:16:09.468Z,73.28
2023-03-07T16:17:43.536Z,71.07
2023-03-07T16:19:18.217Z,82.20
2023-03-07T16:20:51.380Z,103.05
2023-03-07T16:22:25.094Z,60.63
2023-03-07T16:23:58.231Z,70.95
2023-03-07T16:25:32.975Z,79.53
2023-03-07T16:27:06.176Z,86.60
2023-03-07T16:28:41.471Z,42.28
2023-03-07T16:30:18.324Z,51.92
2023-03-07T16:31:51.547Z,67.00
2023-03-07T16:33:24.738Z,45.25
2023-03-07T16:34:59.512Z,47.92
2023-03-07T16:36:32.700Z,62.10
2023-03-07T16:38:06.094Z,70.22
2023-03-07T16:39:39.216Z,150.68
2023-03-07T16:41:17.364Z,145.77
2023-03-07T16:42:51.670Z,85.68
2023-03-07T16:44:25.103Z,84.13
2023-03-07T16:45:58.778Z,70.05
2023-03-07T16:47:32.347Z,78.88
2023-03-07T16:49:05.499Z,73.30
2023-03-07T16:50:40.195Z,87.38
2023-03-07T16:52:14.550Z,58.47
2023-03-07T16:53:49.351Z,97.20
2023-03-07T16:55:23.511Z,144.52
2023-03-07T16:56:58.340Z,104.55
2023-03-07T16:58:35.035Z,123.03
2023-03-07T17:00:13.773Z,155.52
2023-03-07T17:01:49.202Z,103.85
2023-03-07T17:03:22.790Z,78.50
2023-03-07T17:04:56.061Z,81.00
2023-03-07T17:06:39.219Z,76.88
2023-03-07T17:08:12.715Z,92.47
2023-03-07T17:09:45.896Z,80.60
2023-03-07T17:11:21.147Z,75.40
2023-03-07T17:12:56.134Z,64.13
2023-03-07T17:14:29.753Z,82.03
2023-03-07T17:16:02.943Z,133.15
2023-03-07T17:17:37.575Z,81.82
2023-03-07T17:19:23.371Z,132.40
2023-03-07T17:20:56.515Z,103.00
2023-03-07T17:22:31.019Z,58.45
2023-03-07T17:24:04.264Z,58.67
2023-03-07T17:25:37.817Z,72.15
2023-03-07T17:27:11.142Z,48.97
2023-03-07T17:28:44.864Z,42.53
2023-03-07T17:30:21.664Z,43.90
2023-03-07T17:31:55.121Z,37.08
2023-03-07T17:33:28.223Z,69.30
2023-03-07T17:35:01.384Z,81.07
2023-03-07T17:36:34.808Z,89.65
2023-03-07T17:38:09.983Z,86.90
2023-03-07T17:39:43.940Z,59.80
2023-03-07T17:41:17.716Z,64.07
2023-03-07T17:42:54.778Z,111.28
2023-03-07T17:44:29.050Z,107.18
2023-03-07T17:46:02.325Z,89.47
2023-03-07T17:47:35.606Z,65.85
2023-03-07T17:49:08.728Z,66.45
2023-03-07T17:50:42.258Z,37.50
2023-03-07T17:52:15.357Z,29.15
2023-03-07T17:53:49.940Z,83.07
2023-03-07T17:55:25.484Z,41.70
2023-03-07T17:56:59.371Z,44.38
2023-03-07T17:58:32.432Z,43.30
2023-03-07T18:00:12.036Z,42.08
2023-03-07T18:01:45.925Z,45.22
2023-03-07T18:03:19.455Z,65.90
2023-03-07T18:04:52.653Z,75.63
2023-03-07T18:06:26.686Z,117.45
2023-03-07T18:07:59.853Z,110.03
2023-03-07T18:09:35.378Z,106.90
2023-03-07T18:11:10.429Z,123.10
2023-03-07T18:12:44.708Z,125.22
2023-03-07T18:14:18.199Z,106.47
2023-03-07T18:15:51.538Z,87.45
2023-03-07T18:17:24.687Z,73.15
2023-03-07T18:19:00.704Z,87.15
2023-03-07T18:20:34.601Z,76.80
2023-03-07T18:22:08.364Z,76.35
2023-03-07T18:23:43.045Z,65.82
2023-03-07T18:25:19.085Z,60.50
2023-03-07T18:26:52.502Z,68.18
2023-03-07T18:28:26.496Z,48.42
2023-03-07T18:29:59.900Z,50.75
2023-03-07T18:31:34.964Z,90.03
2023-03-07T18:33:08.217Z,113.07
2023-03-07T18:34:41.478Z,77.10
2023-03-07T18:36:16.821Z,72.80
2023-03-07T18:37:50.053Z,57.80
2023-03-07T18:39:24.654Z,43.60
2023-03-07T18:41:06.690Z,23.33
2023-03-07T18:42:40.325Z,25.42
2023-03-07T18:44:13.610Z,30.17
2023-03-07T18:45:48.146Z,31.83
2023-03-07T18:47:21.299Z,31.38
2023-03-07T18:48:54.967Z,32.65
2023-03-07T18:50:28.251Z,33.28
2023-03-07T18:52:01.632Z,36.60
2023-03-07T18:53:36.107Z,24.65
2023-03-07T18:55:10.143Z,38.72
2023-03-07T18:56:46.973Z,45.95
2023-03-07T18:58:20.430Z,30.92
2023-03-07T18:59:53.591Z,40.90
2023-03-07T19:01:28.526Z,28.75
2023-03-07T19:03:01.688Z,34.65
2023-03-07T19:04:35.054Z,22.60
2023-03-07T19:06:09.068Z,27.23
2023-03-07T19:07:42.331Z,21.33
2023-03-07T19:09:17.398Z,24.15
2023-03-07T19:10:50.664Z,22.58
2023-03-07T19:12:25.520Z,20.23
2023-03-07T19:13:58.920Z,19.45
2023-03-07T19:15:32.609Z,25.85
2023-03-07T19:17:05.789Z,34.95
2023-03-07T19:18:39.556Z,27.73
2023-03-07T19:20:13.447Z,24.45
2023-03-07T19:21:46.636Z,26.00
2023-03-07T19:23:21.410Z,24.33
2023-03-07T19:24:54.920Z,34.67
2023-03-07T19:26:28.275Z,27.55
2023-03-07T19:28:03.061Z,27.15
2023-03-07T19:29:36.687Z,35.08
2023-03-07T19:31:11.684Z,22.45
2023-03-07T19:32:45.062Z,20.63
2023-03-07T19:34:18.178Z,18.75
2023-03-07T19:36:02.720Z,21.35
2023-03-07T19:37:36.749Z,25.77
2023-03-07T19:39:14.947Z,28.58
2023-03-07T19:40:49.293Z,26.17
2023-03-07T19:42:22.992Z,27.10
2023-03-07T19:43:59.394Z,22.73
2023-03-07T19:45:32.529Z,17.13
2023-03-07T19:47:06.351Z,23.17
2023-03-07T19:48:40.908Z,27.67
2023-03-07T19:50:14.364Z,23.70
2023-03-07T19:51:47.551Z,19.25
2023-03-07T19:53:21.384Z,19.33
2023-03-07T19:54:54.933Z,19.67
2023-03-07T19:56:29.999Z,16.30
2023-03-07T19:58:03.113Z,11.50
2023-03-07T19:59:37.883Z,15.80
2023-03-07T20:01:13.079Z,14.23
2023-03-07T20:02:46.275Z,13.38
2023-03-07T20:04:19.437Z,9.88
2023-03-07T20:05:51.895Z,14.98
2023-03-07T20:07:25.236Z,16.30
2023-03-07T20:08:59.968Z,11.88
2023-03-07T20:10:33.159Z,17.80
2023-03-07T20:12:06.679Z,17.15
2023-03-07T20:13:40.682Z,24.38
2023-03-07T20:15:15.360Z,19.80
2023-03-07T20:16:48.764Z,21.08
2023-03-07T20:18:22.185Z,26.92
2023-03-07T20:19:55.886Z,30.63
2023-03-07T20:21:30.579Z,29.50
2023-03-07T20:23:03.760Z,52.17
2023-03-07T20:24:37.217Z,96.55
2023-03-07T20:26:12.416Z,61.72
2023-03-07T20:27:45.915Z,57.97
2023-03-07T20:29:19.125Z,112.65
2023-03-07T20:30:53.862Z,63.72
2023-03-07T20:32:27.352Z,33.47
2023-03-07T20:34:04.822Z,31.50
2023-03-07T20:35:41.296Z,27.63
2023-03-07T20:37:17.098Z,32.85
2023-03-07T20:38:53.484Z,35.15
2023-03-07T20:40:26.865Z,22.10
2023-03-07T20:42:00.432Z,21.70
2023-03-07T20:43:41.836Z,24.70
2023-03-07T20:45:23.063Z,38.10
2023-03-07T20:46:58.081Z,49.28
2023-03-07T20:48:31.644Z,32.50
2023-03-07T20:50:05.151Z,27.98
2023-03-07T20:51:39.273Z,24.48
2023-03-07T20:53:12.995Z,29.30